Buchanan, North Dakota
Current Conditions -  °F | °C
As of 3:56 PM on Friday 24 Oct 2014 (Local Time) from KJMS Reporting Station
Clear Clear  
Wind Chill: 71°   Ceiling: Unl
Heat Index: 71°   Visibility: 10mi
Dew Point: 40°   Wind: 20mph
Humidity: 32%   Direction: 290°WNW
Pressure: 29.83"   Gusts: NA
Location:  47.06°N, 98.83°W
Report Text: KJMS 242056Z AUTO 29017KT 10SM CLR 22/04 A2983 RMK AO2 SLP103 T02170044 55003
Loading
Personal Weather Stations






























Interactive Weather Map
Tropical Storm Tracking
New forecast layout! Learn more

10-Day Weather Forecast

Advertisements
Track Severe Weather on mobile